Time;durP1;ratioP1;P1;durP2;ratioP2;P2;SDS_P1;SDS_P2;PMS_P1;PMS_P2;Temp;Humidity;BMP_temperature;BMP_pressure;BME280_temperature;BME280_humidity;BME280_pressure;Samples;Min_cycle;Max_cycle;Signal;HPM_P1;HPM_P2
2022/03/29 00:01:30;;;;;;;26.45;19.48;;;11.70;66.50;;;;;;5054277;28;20029;-62
2022/03/29 00:03:56;;;;;;;28.15;18.20;;;11.70;66.50;;;;;;5047245;28;20450;-62
2022/03/29 00:06:21;;;;;;;26.52;17.80;;;11.70;66.60;;;;;;5048117;28;20037;-62
2022/03/29 00:08:47;;;;;;;25.20;18.13;;;11.70;66.50;;;;;;5055034;28;20073;-62
2022/03/29 00:11:13;;;;;;;22.13;17.13;;;11.60;66.60;;;;;;5051082;28;20111;-62
2022/03/29 00:13:38;;;;;;;24.73;18.13;;;11.60;66.70;;;;;;5036935;28;20044;-62
2022/03/29 00:16:04;;;;;;;24.52;17.80;;;11.60;66.70;;;;;;5025291;28;20021;-62
2022/03/29 00:18:30;;;;;;;24.73;18.55;;;11.60;66.70;;;;;;5054737;28;20070;-62
2022/03/29 00:20:56;;;;;;;24.52;18.20;;;11.50;66.70;;;;;;5050077;28;20040;-62
2022/03/29 00:23:21;;;;;;;25.30;18.38;;;11.40;66.70;;;;;;5051974;28;20068;-62
2022/03/29 00:25:47;;;;;;;25.92;18.63;;;11.40;66.80;;;;;;5036050;28;20040;-62
2022/03/29 00:28:14;;;;;;;30.02;19.30;;;11.40;66.90;;;;;;5034511;28;20474;-62
2022/03/29 00:30:40;;;;;;;27.73;19.60;;;11.40;66.90;;;;;;5037969;28;20021;-62
2022/03/29 00:33:05;;;;;;;24.23;18.10;;;11.30;67.00;;;;;;5054447;28;20065;-62
2022/03/29 00:35:31;;;;;;;24.08;18.38;;;11.30;67.10;;;;;;5035359;28;20492;-62
2022/03/29 00:37:57;;;;;;;27.92;19.63;;;11.30;67.30;;;;;;5017093;28;20056;-62
2022/03/29 00:40:23;;;;;;;25.73;17.90;;;11.30;67.30;;;;;;5034929;28;20033;-62
2022/03/29 00:42:49;;;;;;;25.58;18.73;;;11.30;67.30;;;;;;5040203;28;20036;-62
2022/03/29 00:45:15;;;;;;;27.40;19.70;;;11.20;67.30;;;;;;5045911;28;20555;-62
2022/03/29 00:47:41;;;;;;;28.10;19.83;;;11.20;67.50;;;;;;5034323;28;20300;-62
2022/03/29 00:50:07;;;;;;;27.98;19.27;;;11.10;67.50;;;;;;5033201;28;20033;-62
2022/03/29 00:52:33;;;;;;;30.27;20.55;;;11.10;67.70;;;;;;5051648;28;20028;-62
2022/03/29 00:55:02;;;;;;;27.92;19.70;;;11.10;67.80;;;;;;5045248;28;20024;-62
2022/03/29 00:57:29;;;;;;;28.83;20.52;;;11.10;67.80;;;;;;5049191;28;20318;-62
2022/03/29 00:59:56;;;;;;;25.77;19.90;;;11.10;67.80;;;;;;5054143;28;20025;-62
2022/03/29 01:02:22;;;;;;;26.08;19.25;;;11.10;67.90;;;;;;5048143;28;20068;-62
2022/03/29 01:04:47;;;;;;;27.50;19.70;;;11.10;67.90;;;;;;5052605;28;20031;-62
2022/03/29 01:07:13;;;;;;;27.25;19.85;;;11.10;67.90;;;;;;5039656;28;20029;-62
2022/03/29 01:09:39;;;;;;;29.70;20.85;;;11.10;67.90;;;;;;5042141;28;20025;-62
2022/03/29 01:12:05;;;;;;;28.90;19.98;;;11.10;67.90;;;;;;5043129;28;20301;-62
2022/03/29 01:14:32;;;;;;;28.63;20.45;;;11.20;68.00;;;;;;5033069;28;20040;-62
2022/03/29 01:19:45;;;;;;;28.33;19.33;;;11.10;68.00;;;;;;5034075;28;20030;-62
2022/03/29 01:22:12;;;;;;;27.10;19.00;;;11.10;68.10;;;;;;5036538;28;20032;-62
2022/03/29 01:24:41;;;;;;;27.95;20.88;;;11.10;68.20;;;;;;5049249;28;20048;-62
2022/03/29 01:27:07;;;;;;;29.65;20.15;;;11.10;68.20;;;;;;5046152;28;20496;-62
2022/03/29 01:29:36;;;;;;;27.20;19.98;;;11.10;68.20;;;;;;5034070;28;20029;-62
2022/03/29 01:32:03;;;;;;;27.98;20.90;;;11.10;68.20;;;;;;5044196;28;20120;-62
2022/03/29 01:34:31;;;;;;;29.50;19.02;;;11.00;68.30;;;;;;5052233;28;20044;-62
2022/03/29 01:36:57;;;;;;;27.75;19.83;;;11.00;68.40;;;;;;5045230;28;20506;-62
2022/03/29 01:39:23;;;;;;;27.20;19.25;;;11.00;68.40;;;;;;5034311;28;20064;-62
2022/03/29 01:41:48;;;;;;;30.92;19.17;;;11.00;68.50;;;;;;5038192;28;20117;-62
2022/03/29 01:44:14;;;;;;;29.00;20.23;;;11.00;68.60;;;;;;5037752;28;20492;-62
2022/03/29 01:46:40;;;;;;;29.38;20.38;;;11.00;68.60;;;;;;5040753;28;20033;-62
2022/03/29 01:49:06;;;;;;;28.30;20.45;;;11.00;68.70;;;;;;5048376;28;20025;-62
2022/03/29 01:51:32;;;;;;;28.38;21.17;;;11.00;68.70;;;;;;5037570;28;20171;-62
2022/03/29 01:53:59;;;;;;;29.05;21.05;;;10.90;68.80;;;;;;5056672;28;20037;-62
2022/03/29 01:56:31;;;;;;;28.00;20.50;;;10.90;68.90;;;;;;5046498;28;20026;-62
2022/03/29 01:59:04;;;;;;;31.02;21.10;;;10.90;68.90;;;;;;5020196;28;20370;-62
2022/03/29 02:01:29;;;;;;;25.52;19.15;;;10.90;69.00;;;;;;5043795;28;20048;-62
2022/03/29 02:03:55;;;;;;;30.05;19.60;;;10.80;69.00;;;;;;5037080;28;20034;-62
2022/03/29 02:06:21;;;;;;;27.48;19.13;;;10.90;69.10;;;;;;5038564;28;20033;-62
2022/03/29 02:08:46;;;;;;;27.73;18.95;;;10.80;69.10;;;;;;5038759;28;20109;-62
2022/03/29 02:11:13;;;;;;;28.80;19.45;;;10.80;69.10;;;;;;5056884;28;20036;-62
2022/03/29 02:13:39;;;;;;;28.17;20.38;;;10.80;69.20;;;;;;5052490;28;20029;-62
2022/03/29 02:16:05;;;;;;;29.00;19.45;;;10.80;69.30;;;;;;5055375;28;20083;-63
2022/03/29 02:18:30;;;;;;;27.58;19.77;;;10.70;69.30;;;;;;5043688;28;20026;-62
2022/03/29 02:20:56;;;;;;;27.40;20.20;;;10.70;69.40;;;;;;5053993;28;20430;-62
2022/03/29 02:23:22;;;;;;;26.48;19.17;;;10.80;69.50;;;;;;5045415;28;20041;-62
2022/03/29 02:25:47;;;;;;;25.15;17.75;;;10.70;69.60;;;;;;5055115;28;20029;-62
2022/03/29 02:28:14;;;;;;;29.83;19.20;;;10.60;69.70;;;;;;5046127;28;20120;-63
2022/03/29 02:30:40;;;;;;;24.15;17.77;;;10.60;69.90;;;;;;5050593;28;20033;-62
2022/03/29 02:33:07;;;;;;;25.85;17.75;;;10.60;70.00;;;;;;5047188;28;20041;-62
2022/03/29 02:35:33;;;;;;;25.45;17.90;;;10.60;70.00;;;;;;5035813;28;20128;-62
2022/03/29 02:37:59;;;;;;;24.58;17.50;;;10.60;70.00;;;;;;5048759;28;20087;-62
2022/03/29 02:40:26;;;;;;;25.98;18.80;;;10.60;70.00;;;;;;5042639;28;20033;-62
2022/03/29 02:42:53;;;;;;;25.85;17.50;;;10.60;70.10;;;;;;5040057;28;20036;-62
2022/03/29 02:45:21;;;;;;;24.10;17.75;;;10.60;70.20;;;;;;5038867;28;20033;-62
2022/03/29 02:47:50;;;;;;;23.55;16.80;;;10.50;70.20;;;;;;5039489;28;20037;-62
2022/03/29 02:50:17;;;;;;;24.17;17.50;;;10.50;70.40;;;;;;5045065;28;20072;-62
2022/03/29 02:52:58;;;;;;;25.63;18.30;;;10.50;70.40;;;;;;5036605;28;20037;-62
2022/03/29 02:55:28;;;;;;;23.10;17.23;;;10.50;70.60;;;;;;5052381;28;20400;-62
2022/03/29 02:57:54;;;;;;;26.65;18.02;;;10.50;70.60;;;;;;5053012;28;20292;-62
2022/03/29 03:00:20;;;;;;;24.08;16.63;;;10.50;70.50;;;;;;5054438;28;20107;-62
2022/03/29 03:02:50;;;;;;;24.65;17.75;;;10.50;70.60;;;;;;5054494;28;20132;-62
2022/03/29 03:05:17;;;;;;;24.27;17.42;;;10.50;70.60;;;;;;5056777;28;20037;-62
2022/03/29 03:07:44;;;;;;;26.70;17.92;;;10.50;70.70;;;;;;5053451;28;20032;-62
2022/03/29 03:10:10;;;;;;;24.88;17.23;;;10.50;70.70;;;;;;5051053;28;20045;-62
2022/03/29 03:12:37;;;;;;;25.58;17.95;;;10.50;70.80;;;;;;5052105;28;20033;-62
2022/03/29 03:15:05;;;;;;;24.58;17.30;;;10.50;70.80;;;;;;5042243;28;20451;-62
2022/03/29 03:17:30;;;;;;;23.48;16.20;;;10.50;70.90;;;;;;5037038;28;20033;-62
2022/03/29 03:19:56;;;;;;;22.63;16.08;;;10.50;70.80;;;;;;5045171;28;20036;-62
2022/03/29 03:22:21;;;;;;;25.20;16.85;;;10.40;70.90;;;;;;5055849;28;20033;-62
2022/03/29 03:24:47;;;;;;;26.10;18.05;;;10.40;70.90;;;;;;5046855;28;20401;-62
2022/03/29 03:27:12;;;;;;;22.77;16.67;;;10.40;71.00;;;;;;5044184;28;20036;-62
2022/03/29 03:29:38;;;;;;;22.95;15.55;;;10.40;71.10;;;;;;5040951;28;20068;-62
2022/03/29 03:32:04;;;;;;;24.38;16.90;;;10.40;71.20;;;;;;5040484;28;20034;-62
2022/03/29 03:34:30;;;;;;;23.85;16.73;;;10.30;71.10;;;;;;5043362;28;20373;-62
2022/03/29 03:36:57;;;;;;;22.65;16.73;;;10.30;71.30;;;;;;5044671;28;20021;-62
2022/03/29 03:39:22;;;;;;;23.70;16.65;;;10.30;71.30;;;;;;5043649;28;20037;-62
2022/03/29 03:41:48;;;;;;;23.52;16.23;;;10.30;71.30;;;;;;5040793;28;20030;-62
2022/03/29 03:44:14;;;;;;;23.63;16.25;;;10.30;71.40;;;;;;5039161;28;20067;-62
2022/03/29 03:46:40;;;;;;;23.80;16.75;;;10.30;71.40;;;;;;5037434;28;20522;-62
2022/03/29 03:49:06;;;;;;;22.50;15.25;;;10.30;71.50;;;;;;5037356;28;20124;-62
2022/03/29 03:51:33;;;;;;;27.88;17.02;;;10.30;71.50;;;;;;5032917;28;20037;-62
2022/03/29 03:53:59;;;;;;;23.17;15.48;;;10.30;71.60;;;;;;5033761;28;20029;-62
2022/03/29 03:56:24;;;;;;;22.67;16.13;;;10.30;71.60;;;;;;5039519;28;20025;-62
2022/03/29 03:58:50;;;;;;;25.60;17.05;;;10.30;71.70;;;;;;5040464;28;20043;-62
2022/03/29 04:01:15;;;;;;;25.58;16.50;;;10.30;71.80;;;;;;5033393;28;20033;-62
2022/03/29 04:03:41;;;;;;;24.35;16.73;;;10.30;71.80;;;;;;5040278;28;20061;-62
2022/03/29 04:06:07;;;;;;;26.83;17.30;;;10.30;71.80;;;;;;5044687;28;20065;-62
2022/03/29 04:08:32;;;;;;;26.48;18.02;;;10.30;71.90;;;;;;5053530;28;20430;-62
2022/03/29 04:10:59;;;;;;;27.08;17.67;;;10.30;72.00;;;;;;5037212;28;20023;-62
2022/03/29 04:13:24;;;;;;;28.60;17.77;;;10.30;72.10;;;;;;5034830;28;20033;-62
2022/03/29 04:15:50;;;;;;;26.98;18.10;;;10.30;72.00;;;;;;5041629;28;20082;-62
2022/03/29 04:18:16;;;;;;;26.27;17.52;;;10.30;72.00;;;;;;5054829;28;20102;-62
2022/03/29 04:20:43;;;;;;;28.02;18.23;;;10.30;72.10;;;;;;5050305;28;20037;-62
2022/03/29 04:23:08;;;;;;;26.92;18.42;;;10.30;72.20;;;;;;5037542;28;20032;-62
2022/03/29 04:25:38;;;;;;;26.60;18.02;;;10.30;72.20;;;;;;5048943;28;20029;-62
2022/03/29 04:28:03;;;;;;;27.92;18.55;;;10.30;72.20;;;;;;5034811;28;20485;-62
2022/03/29 04:30:29;;;;;;;29.98;18.95;;;10.30;72.30;;;;;;5017992;28;20033;-62
2022/03/29 04:32:55;;;;;;;28.67;19.33;;;10.20;72.30;;;;;;5054428;28;20033;-62
2022/03/29 04:35:20;;;;;;;30.73;18.92;;;10.20;72.40;;;;;;5035961;28;20486;-62
2022/03/29 04:37:46;;;;;;;26.20;18.30;;;10.20;72.50;;;;;;5035186;28;20361;-62
2022/03/29 04:40:12;;;;;;;29.45;19.05;;;10.20;72.60;;;;;;5035413;28;20354;-62
2022/03/29 04:42:44;;;;;;;28.80;18.38;;;10.20;72.60;;;;;;5053388;28;20139;-63
2022/03/29 04:45:11;;;;;;;27.30;18.20;;;10.30;72.90;;;;;;5050879;28;20450;-62
2022/03/29 04:47:38;;;;;;;27.50;18.35;;;10.30;72.70;;;;;;5037736;28;20470;-62
2022/03/29 04:50:04;;;;;;;30.38;19.88;;;10.20;72.70;;;;;;5046967;28;20068;-62
2022/03/29 04:52:30;;;;;;;29.77;19.35;;;10.20;72.80;;;;;;5050726;28;20051;-62
2022/03/29 04:54:56;;;;;;;29.85;19.50;;;10.20;72.90;;;;;;5052610;28;20446;-62
2022/03/29 04:57:21;;;;;;;29.83;18.88;;;10.20;73.00;;;;;;5035415;28;20040;-62
2022/03/29 04:59:47;;;;;;;28.20;19.27;;;10.20;73.00;;;;;;5033358;28;20029;-62
2022/03/29 05:02:12;;;;;;;30.63;19.38;;;10.20;73.10;;;;;;5043915;28;20037;-62
2022/03/29 05:04:38;;;;;;;28.65;18.58;;;10.20;73.20;;;;;;5051467;28;20036;-62
2022/03/29 05:07:03;;;;;;;29.00;19.05;;;10.20;73.10;;;;;;5043761;28;20095;-62
2022/03/29 05:09:29;;;;;;;30.80;19.25;;;10.20;73.20;;;;;;5034587;28;20057;-62
2022/03/29 05:11:57;;;;;;;31.10;19.33;;;10.20;73.20;;;;;;5037814;28;20033;-62
2022/03/29 05:14:22;;;;;;;29.40;19.30;;;10.20;73.20;;;;;;5052958;28;20112;-62
2022/03/29 05:16:48;;;;;;;28.38;19.90;;;10.20;73.30;;;;;;5043561;28;20104;-62
2022/03/29 05:19:14;;;;;;;28.95;18.73;;;10.20;73.30;;;;;;5035064;28;20090;-62
2022/03/29 05:21:39;;;;;;;30.23;19.42;;;10.20;73.40;;;;;;5038149;28;20030;-62
2022/03/29 05:24:05;;;;;;;29.00;17.83;;;10.20;73.40;;;;;;5037113;28;20037;-62
2022/03/29 05:26:31;;;;;;;30.85;20.45;;;10.20;73.50;;;;;;5042048;28;20021;-62
2022/03/29 05:28:56;;;;;;;32.70;20.38;;;10.20;73.50;;;;;;5057160;28;20080;-62
2022/03/29 05:31:23;;;;;;;28.80;18.67;;;10.20;73.60;;;;;;5056277;28;20075;-63
2022/03/29 05:33:48;;;;;;;27.42;17.75;;;10.20;73.60;;;;;;5047332;28;20051;-62
2022/03/29 05:36:15;;;;;;;27.58;18.67;;;10.20;73.60;;;;;;5050608;28;20334;-64
2022/03/29 05:38:47;;;;;;;29.20;18.30;;;10.20;73.60;;;;;;5040486;28;20029;-64
2022/03/29 05:41:15;;;;;;;29.40;17.48;;;10.20;73.60;;;;;;5041848;28;20034;-64
2022/03/29 05:43:41;;;;;;;26.40;17.70;;;10.20;73.60;;;;;;5047102;28;20034;-62
2022/03/29 05:48:55;;;;;;;28.33;17.65;;;10.20;73.60;;;;;;5059944;28;20424;-62
2022/03/29 05:51:23;;;;;;;27.67;17.80;;;10.20;73.70;;;;;;5077025;28;20028;-62
2022/03/29 05:53:49;;;;;;;25.42;16.73;;;10.20;73.80;;;;;;5064335;28;20036;-63
2022/03/29 05:56:15;;;;;;;26.80;17.33;;;10.10;73.80;;;;;;5039456;28;20021;-63
2022/03/29 05:58:41;;;;;;;27.02;17.27;;;10.20;73.90;;;;;;5047995;28;20101;-62
2022/03/29 06:01:07;;;;;;;27.88;16.90;;;10.20;73.90;;;;;;5042588;28;20100;-63
2022/03/29 06:03:32;;;;;;;27.52;17.05;;;10.20;73.90;;;;;;5037556;28;20037;-64
2022/03/29 06:05:58;;;;;;;30.25;19.08;;;10.20;73.90;;;;;;5053905;28;20608;-63
2022/03/29 06:08:23;;;;;;;29.30;18.60;;;10.20;73.90;;;;;;5053142;28;20029;-62
2022/03/29 06:10:49;;;;;;;27.98;18.70;;;10.20;74.00;;;;;;5041721;28;20021;-62
2022/03/29 06:13:15;;;;;;;27.75;16.80;;;10.20;74.00;;;;;;5052001;28;20362;-62
2022/03/29 06:15:40;;;;;;;27.25;17.13;;;10.20;74.00;;;;;;5055115;28;20077;-62
2022/03/29 06:18:06;;;;;;;27.63;17.27;;;10.10;73.90;;;;;;5041155;28;20128;-62
2022/03/29 06:20:32;;;;;;;27.15;16.85;;;10.10;74.00;;;;;;5041756;28;20407;-62
2022/03/29 06:22:58;;;;;;;27.38;17.50;;;10.10;74.00;;;;;;5036312;28;20069;-62
2022/03/29 06:25:23;;;;;;;26.00;17.45;;;10.10;74.00;;;;;;5037207;28;20350;-62
2022/03/29 06:27:49;;;;;;;28.80;17.95;;;10.20;74.10;;;;;;5068166;28;20090;-62
2022/03/29 06:30:16;;;;;;;30.00;18.63;;;10.20;74.10;;;;;;5040858;28;21526;-62
2022/03/29 06:32:50;;;;;;;28.70;18.58;;;10.30;74.00;;;;;;5051882;28;20095;-62
2022/03/29 06:35:24;;;;;;;31.08;20.10;;;10.30;74.00;;;;;;5048606;28;20045;-62
2022/03/29 06:37:52;;;;;;;30.17;19.27;;;10.30;73.90;;;;;;5033060;28;20473;-62
2022/03/29 06:40:20;;;;;;;28.23;19.25;;;10.30;73.90;;;;;;5048695;28;20036;-62
2022/03/29 06:42:46;;;;;;;30.17;18.77;;;10.30;73.80;;;;;;5029525;28;20029;-62
2022/03/29 06:45:12;;;;;;;24.77;16.70;;;10.30;73.80;;;;;;5053405;28;20040;-62
2022/03/29 06:47:37;;;;;;;30.20;19.15;;;10.30;73.80;;;;;;5039204;28;20041;-63
2022/03/29 06:50:04;;;;;;;26.95;16.85;;;10.30;73.70;;;;;;5044160;28;20120;-62
2022/03/29 06:52:34;;;;;;;27.70;18.50;;;10.30;73.60;;;;;;5031691;28;20333;-62
2022/03/29 06:55:00;;;;;;;26.73;17.40;;;10.30;73.70;;;;;;5037760;28;21851;-62
2022/03/29 06:57:25;;;;;;;28.15;17.05;;;10.30;73.60;;;;;;5055865;28;20122;-63
2022/03/29 06:59:51;;;;;;;30.20;17.88;;;10.20;73.60;;;;;;5054064;28;20025;-62
2022/03/29 07:02:17;;;;;;;27.30;17.02;;;10.20;73.60;;;;;;5038252;28;20034;-63
2022/03/29 07:04:42;;;;;;;24.77;15.85;;;10.20;73.60;;;;;;5047883;28;20034;-62
2022/03/29 07:07:08;;;;;;;27.52;17.33;;;10.20;73.40;;;;;;5051792;28;20531;-63
2022/03/29 07:12:18;;;;;;;25.70;16.30;;;10.20;73.50;;;;;;5038780;28;20430;-62
2022/03/29 07:14:44;;;;;;;26.63;16.67;;;10.20;73.40;;;;;;5038726;28;20032;-61
2022/03/29 07:17:13;;;;;;;26.02;16.83;;;10.20;73.40;;;;;;5037283;28;20033;-63
2022/03/29 07:19:39;;;;;;;24.63;15.73;;;10.20;73.30;;;;;;5038104;28;20042;-61
2022/03/29 07:22:05;;;;;;;26.55;16.77;;;10.20;73.30;;;;;;5037105;28;20035;-62
2022/03/29 07:24:31;;;;;;;24.05;14.73;;;10.20;73.20;;;;;;5036899;28;20030;-62
2022/03/29 07:26:57;;;;;;;30.83;17.15;;;10.20;73.00;;;;;;5051394;28;20099;-63
2022/03/29 07:29:23;;;;;;;28.13;17.55;;;10.20;73.00;;;;;;5036001;28;20438;-62
2022/03/29 07:31:48;;;;;;;30.70;18.77;;;10.20;72.90;;;;;;5036935;28;20025;-62
2022/03/29 07:34:15;;;;;;;27.40;17.27;;;10.20;72.80;;;;;;5038127;28;20475;-62
2022/03/29 07:36:41;;;;;;;28.83;17.90;;;10.20;72.60;;;;;;5049611;28;20438;-63
2022/03/29 07:39:07;;;;;;;29.40;16.77;;;10.20;72.50;;;;;;5054741;28;20426;-62
2022/03/29 07:41:33;;;;;;;28.33;17.92;;;10.20;72.40;;;;;;5051938;28;20423;-62
2022/03/29 07:43:59;;;;;;;29.30;16.95;;;10.20;72.40;;;;;;5049245;28;20049;-62
2022/03/29 07:46:25;;;;;;;29.42;17.95;;;10.20;72.20;;;;;;5038740;28;20426;-62
2022/03/29 07:48:51;;;;;;;27.55;17.63;;;10.30;72.10;;;;;;5050533;28;20036;-61
2022/03/29 07:51:17;;;;;;;28.88;19.33;;;10.30;72.00;;;;;;5044409;28;20033;-62
2022/03/29 07:53:43;;;;;;;31.65;19.30;;;10.30;71.80;;;;;;5054234;28;20110;-62
2022/03/29 07:56:09;;;;;;;30.15;19.05;;;10.30;71.70;;;;;;5036394;28;20397;-61
2022/03/29 07:58:35;;;;;;;32.70;19.45;;;10.30;71.60;;;;;;5035117;28;20040;-62
2022/03/29 08:01:00;;;;;;;31.40;19.45;;;10.30;71.60;;;;;;5040610;28;20021;-62
2022/03/29 08:03:32;;;;;;;30.75;19.95;;;10.30;71.50;;;;;;5039988;28;20033;-62
2022/03/29 08:05:58;;;;;;;29.13;19.13;;;10.30;71.40;;;;;;5037274;28;20034;-62
2022/03/29 08:08:24;;;;;;;31.48;18.98;;;10.40;71.30;;;;;;5039978;28;20362;-63
2022/03/29 08:10:50;;;;;;;31.13;19.45;;;10.40;71.20;;;;;;5049615;28;20031;-62
2022/03/29 08:13:17;;;;;;;32.15;19.55;;;10.40;71.20;;;;;;5052118;28;20029;-63
2022/03/29 08:15:44;;;;;;;32.75;19.35;;;10.40;71.10;;;;;;5049136;28;20397;-63
2022/03/29 08:18:10;;;;;;;30.65;19.65;;;10.40;71.00;;;;;;5040085;28;20056;-63
2022/03/29 08:20:37;;;;;;;32.05;19.40;;;10.30;70.80;;;;;;5039800;28;20073;-62
2022/03/29 08:23:02;;;;;;;29.25;18.42;;;10.40;70.70;;;;;;5047732;28;20025;-64
2022/03/29 08:25:31;;;;;;;30.60;18.83;;;10.40;70.50;;;;;;5046282;28;20051;-63
2022/03/29 08:27:57;;;;;;;34.60;20.67;;;10.50;70.40;;;;;;5048647;28;20033;-63
2022/03/29 08:30:24;;;;;;;32.70;18.95;;;10.50;70.20;;;;;;5037120;28;20037;-62
2022/03/29 08:32:51;;;;;;;34.92;19.85;;;10.50;70.10;;;;;;5043061;28;20049;-63
2022/03/29 08:35:16;;;;;;;35.53;20.38;;;10.60;70.00;;;;;;5033676;28;20021;-63
2022/03/29 08:37:42;;;;;;;35.97;21.52;;;10.60;69.90;;;;;;5045312;28;20409;-63
2022/03/29 08:40:13;;;;;;;37.05;21.65;;;10.60;69.70;;;;;;5034595;28;20034;-63
2022/03/29 08:42:43;;;;;;;32.42;19.60;;;10.60;69.50;;;;;;5042319;28;20080;-62
2022/03/29 08:45:11;;;;;;;32.27;20.50;;;10.70;69.40;;;;;;5046195;28;20025;-63
2022/03/29 08:47:39;;;;;;;36.03;21.88;;;10.70;69.40;;;;;;5035299;28;20287;-62
2022/03/29 08:50:06;;;;;;;35.50;20.70;;;10.70;69.20;;;;;;5034879;28;20143;-63
2022/03/29 08:52:32;;;;;;;33.67;21.20;;;10.80;69.10;;;;;;5035596;28;20038;-63
2022/03/29 08:54:58;;;;;;;35.45;22.13;;;10.80;68.90;;;;;;5034907;28;20025;-62
2022/03/29 08:57:24;;;;;;;31.33;20.75;;;10.90;68.70;;;;;;5049383;28;20035;-63
2022/03/29 08:59:49;;;;;;;33.13;21.77;;;10.90;68.50;;;;;;5069796;28;20028;-63
2022/03/29 09:02:16;;;;;;;33.22;20.17;;;11.00;68.30;;;;;;5051659;28;20044;-63
2022/03/29 09:04:43;;;;;;;33.60;20.65;;;11.10;68.00;;;;;;5050737;28;20060;-63
2022/03/29 09:07:09;;;;;;;34.75;20.67;;;11.10;67.70;;;;;;5034385;28;20441;-62
2022/03/29 09:09:44;;;;;;;34.13;20.88;;;11.20;67.50;;;;;;5034136;28;20031;-62
2022/03/29 09:12:13;;;;;;;32.72;21.40;;;11.20;67.30;;;;;;5034801;28;20095;-62
2022/03/29 09:14:55;;;;;;;33.83;20.42;;;11.20;67.30;;;;;;5053224;28;20036;-63
2022/03/29 09:17:25;;;;;;;32.13;20.27;;;11.30;67.10;;;;;;5053000;28;20033;-62
2022/03/29 09:19:51;;;;;;;35.08;21.35;;;11.30;67.00;;;;;;5052918;28;20028;-62
2022/03/29 09:22:42;;;;;;;34.13;21.70;;;11.30;66.90;;;;;;5053791;28;20037;-62
2022/03/29 09:25:13;;;;;;;34.08;20.45;;;11.30;66.80;;;;;;5034638;28;20057;-62
2022/03/29 09:27:49;;;;;;;33.50;21.10;;;11.40;66.60;;;;;;5038000;28;20116;-62
2022/03/29 09:30:15;;;;;;;33.97;21.05;;;11.50;66.30;;;;;;5036829;28;20030;-62
2022/03/29 09:33:07;;;;;;;33.83;20.15;;;11.50;66.20;;;;;;5034350;28;20431;-62
2022/03/29 09:35:37;;;;;;;29.00;19.35;;;11.60;66.00;;;;;;5050176;28;20069;-62
2022/03/29 09:38:26;;;;;;;34.70;21.08;;;11.60;65.90;;;;;;5040051;28;20032;-63
2022/03/29 09:40:54;;;;;;;33.83;20.08;;;11.70;65.50;;;;;;5042631;28;20025;-63
2022/03/29 09:43:38;;;;;;;33.97;20.83;;;11.70;66.00;;;;;;5033807;28;20036;-64
2022/03/29 09:46:04;;;;;;;33.80;20.27;;;11.80;65.10;;;;;;5033200;28;20358;-63
2022/03/29 09:48:34;;;;;;;36.42;21.52;;;11.80;64.90;;;;;;5034864;28;20033;-63
2022/03/29 09:51:14;;;;;;;33.92;21.67;;;11.80;64.70;;;;;;5033003;28;20033;-63
2022/03/29 09:53:47;;;;;;;33.00;20.52;;;11.90;64.60;;;;;;5036657;28;20033;-63
2022/03/29 09:56:15;;;;;;;34.00;20.92;;;12.10;64.20;;;;;;5054454;28;20511;-63
2022/03/29 09:58:41;;;;;;;35.97;22.45;;;12.30;63.80;;;;;;5053823;28;20025;-63
2022/03/29 10:01:24;;;;;;;36.38;22.13;;;12.50;63.30;;;;;;5053866;28;20029;-63
2022/03/29 10:03:52;;;;;;;37.20;21.40;;;12.60;62.90;;;;;;5055861;28;20036;-63
2022/03/29 10:06:21;;;;;;;33.20;21.55;;;12.70;62.80;;;;;;5058016;28;20412;-63
2022/03/29 10:11:35;;;;;;;33.03;20.77;;;12.80;62.40;;;;;;5056944;28;20090;-63
2022/03/29 10:14:02;;;;;;;37.85;22.52;;;12.80;62.20;;;;;;5057452;28;20087;-63
2022/03/29 10:16:29;;;;;;;35.30;22.20;;;12.90;62.00;;;;;;5040813;28;20033;-63
2022/03/29 10:18:55;;;;;;;41.30;22.73;;;13.10;61.60;;;;;;5049872;28;20033;-63
2022/03/29 10:21:22;;;;;;;33.47;21.05;;;13.30;61.20;;;;;;5037742;28;20021;-63
2022/03/29 10:23:49;;;;;;;35.55;21.75;;;13.40;60.80;;;;;;5036503;28;20029;-63
2022/03/29 10:26:21;;;;;;;35.58;21.48;;;13.60;60.70;;;;;;5037794;28;20300;-63
2022/03/29 10:28:48;;;;;;;34.00;21.70;;;13.80;60.30;;;;;;5036428;28;20124;-63
2022/03/29 10:31:34;;;;;;;32.30;20.85;;;14.00;59.70;;;;;;5036535;28;20408;-63
2022/03/29 10:34:20;;;;;;;33.05;20.70;;;14.30;59.00;;;;;;5042137;28;20037;-63
2022/03/29 10:37:16;;;;;;;34.92;21.77;;;14.50;58.50;;;;;;5057473;28;20025;-63
2022/03/29 10:40:00;;;;;;;37.15;21.27;;;14.70;58.20;;;;;;5054193;28;20025;-64
2022/03/29 10:42:38;;;;;;;31.17;19.98;;;15.00;57.70;;;;;;5038755;28;20374;-63
2022/03/29 10:45:05;;;;;;;34.25;22.10;;;15.10;57.30;;;;;;5036958;28;20037;-63
2022/03/29 10:47:32;;;;;;;32.90;21.77;;;15.20;57.10;;;;;;5041917;28;20112;-63
2022/03/29 10:49:58;;;;;;;35.30;22.52;;;15.30;56.90;;;;;;5050670;28;20033;-64
2022/03/29 10:52:23;;;;;;;32.08;21.17;;;15.30;56.60;;;;;;5049415;28;20029;-61
2022/03/29 10:54:50;;;;;;;35.20;21.38;;;15.40;56.30;;;;;;5044843;28;20445;-62
2022/03/29 10:57:28;;;;;;;30.80;20.95;;;15.50;56.10;;;;;;5040144;28;20029;-62
2022/03/29 11:00:06;;;;;;;32.58;21.63;;;15.70;55.60;;;;;;5037244;28;20362;-62
2022/03/29 11:02:32;;;;;;;34.28;21.95;;;15.90;55.30;;;;;;5053984;28;20032;-62
2022/03/29 11:05:03;;;;;;;33.67;22.30;;;16.00;55.20;;;;;;5053981;28;20392;-62
2022/03/29 11:07:34;;;;;;;34.72;22.15;;;16.00;54.80;;;;;;5054749;28;20442;-62
2022/03/29 11:10:19;;;;;;;31.10;20.40;;;16.10;54.70;;;;;;5047111;28;20091;-62
2022/03/29 11:12:53;;;;;;;33.20;21.90;;;16.10;54.50;;;;;;5036764;28;20183;-62
2022/03/29 11:15:24;;;;;;;32.65;22.20;;;16.00;54.40;;;;;;5042778;28;20043;-62
2022/03/29 11:17:51;;;;;;;30.65;21.17;;;16.10;54.40;;;;;;5037708;28;20468;-62
2022/03/29 11:20:32;;;;;;;29.73;19.38;;;16.10;54.30;;;;;;5043022;28;20449;-62
2022/03/29 11:23:04;;;;;;;32.33;21.08;;;16.20;53.90;;;;;;5044422;28;20044;-62
2022/03/29 11:25:38;;;;;;;28.60;19.95;;;16.30;53.90;;;;;;5024375;28;20037;-62
2022/03/29 11:28:09;;;;;;;32.47;21.48;;;16.30;53.70;;;;;;5039080;28;20039;-62
2022/03/29 11:30:35;;;;;;;32.35;20.65;;;16.30;53.50;;;;;;5054796;28;20078;-62
2022/03/29 11:33:03;;;;;;;34.83;22.52;;;16.40;53.50;;;;;;5052521;28;20432;-62
2022/03/29 11:35:31;;;;;;;31.90;21.23;;;16.30;53.40;;;;;;5052569;28;20029;-65
2022/03/29 11:38:13;;;;;;;30.95;21.25;;;16.40;53.30;;;;;;5051846;28;20363;-65
2022/03/29 11:40:41;;;;;;;32.03;20.85;;;16.40;53.00;;;;;;5031973;28;20342;-65
2022/03/29 11:43:12;;;;;;;31.60;21.42;;;16.40;53.10;;;;;;5051843;28;20033;-65
2022/03/29 11:45:41;;;;;;;32.42;21.27;;;16.30;53.00;;;;;;5036448;28;20033;-65
2022/03/29 11:48:14;;;;;;;31.33;20.73;;;16.40;53.10;;;;;;5051051;28;20044;-65
2022/03/29 11:50:40;;;;;;;29.17;20.05;;;16.40;52.90;;;;;;5047331;28;20434;-65
2022/03/29 11:53:30;;;;;;;31.45;22.17;;;16.40;52.80;;;;;;5038123;28;20127;-65
2022/03/29 11:56:07;;;;;;;29.63;20.07;;;16.40;52.60;;;;;;5055103;28;20033;-66
2022/03/29 11:58:49;;;;;;;31.45;21.75;;;16.40;52.60;;;;;;5019962;28;20283;-65
2022/03/29 12:01:17;;;;;;;29.25;20.63;;;16.50;52.50;;;;;;5017332;28;20025;-65
2022/03/29 12:03:46;;;;;;;28.17;20.17;;;16.50;52.50;;;;;;5045339;28;20025;-65
2022/03/29 12:06:17;;;;;;;28.73;21.38;;;16.50;52.50;;;;;;5055392;28;20036;-65
2022/03/29 12:08:53;;;;;;;30.75;21.20;;;16.50;52.30;;;;;;5036438;28;20069;-65
2022/03/29 12:11:26;;;;;;;29.48;21.38;;;16.50;52.30;;;;;;5051073;28;20033;-65
2022/03/29 12:14:05;;;;;;;29.25;20.63;;;16.50;52.30;;;;;;5037640;28;20061;-65
2022/03/29 12:16:46;;;;;;;28.50;20.98;;;16.50;52.20;;;;;;5046953;28;20025;-65
2022/03/29 12:19:17;;;;;;;29.58;20.75;;;16.50;52.20;;;;;;5035068;28;20076;-65
2022/03/29 12:21:45;;;;;;;29.52;21.08;;;16.50;52.80;;;;;;5034069;28;20033;-65
2022/03/29 12:24:13;;;;;;;27.90;20.30;;;16.50;52.20;;;;;;5034694;28;20522;-65
2022/03/29 12:26:42;;;;;;;26.95;20.02;;;16.50;52.10;;;;;;5019142;28;20090;-66
2022/03/29 12:29:12;;;;;;;28.90;20.05;;;16.50;52.00;;;;;;5042736;28;20087;-66
2022/03/29 12:31:38;;;;;;;27.10;20.45;;;16.50;51.90;;;;;;5053222;28;20072;-65
2022/03/29 12:34:05;;;;;;;28.65;19.27;;;16.50;51.80;;;;;;5038111;28;20124;-65
2022/03/29 12:36:31;;;;;;;29.63;20.70;;;16.40;51.80;;;;;;5040874;28;20430;-65
2022/03/29 12:39:04;;;;;;;27.85;20.00;;;16.40;51.70;;;;;;5042090;28;20028;-66
2022/03/29 12:41:38;;;;;;;27.63;19.73;;;16.40;51.80;;;;;;5044398;28;20110;-67
2022/03/29 12:44:06;;;;;;;27.48;20.48;;;16.30;51.80;;;;;;5048615;28;20025;-67